createdAt,value
2023-01-25T00:00:46.690Z,34.30
2023-01-25T00:03:33.263Z,36.20
2023-01-25T00:06:09.046Z,35.10
2023-01-25T00:08:42.696Z,35.90
2023-01-25T00:11:17.499Z,34.60
2023-01-25T00:13:51.715Z,32.30
2023-01-25T00:16:26.284Z,31.60
2023-01-25T00:19:00.027Z,30.00
2023-01-25T00:21:34.578Z,32.40
2023-01-25T00:24:12.023Z,28.40
2023-01-25T00:26:46.203Z,23.10
2023-01-25T00:29:20.253Z,27.50
2023-01-25T00:32:32.246Z,26.70
2023-01-25T00:35:07.064Z,23.30
2023-01-25T00:37:44.590Z,23.00
2023-01-25T00:40:18.783Z,19.70
2023-01-25T00:42:52.754Z,21.10
2023-01-25T00:45:26.813Z,23.20
2023-01-25T00:48:03.733Z,20.60
2023-01-25T00:50:40.360Z,22.40
2023-01-25T00:53:14.109Z,20.70
2023-01-25T00:55:55.365Z,22.00
2023-01-25T00:58:29.292Z,18.00
2023-01-25T01:01:03.023Z,17.20
2023-01-25T01:03:37.152Z,16.80
2023-01-25T01:06:13.902Z,18.00
2023-01-25T01:08:47.509Z,19.10
2023-01-25T01:11:21.435Z,22.10
2023-01-25T01:13:58.196Z,22.10
2023-01-25T01:16:31.880Z,19.90
2023-01-25T01:19:06.454Z,20.30
2023-01-25T01:21:40.811Z,20.30
2023-01-25T01:24:15.172Z,18.70
2023-01-25T01:26:49.005Z,19.30
2023-01-25T01:29:22.693Z,18.40
2023-01-25T01:31:56.842Z,17.10
2023-01-25T01:34:32.589Z,18.10
2023-01-25T01:37:06.362Z,17.70
2023-01-25T01:39:41.492Z,19.10
2023-01-25T01:42:15.692Z,16.50
2023-01-25T01:44:51.598Z,18.00
2023-01-25T01:47:30.631Z,16.70
2023-01-25T01:50:26.711Z,17.10
2023-01-25T01:53:00.952Z,19.00
2023-01-25T01:55:35.450Z,17.80
2023-01-25T01:58:10.550Z,16.70
2023-01-25T02:00:45.114Z,17.30
2023-01-25T02:03:19.478Z,15.30
2023-01-25T02:05:58.781Z,17.50
2023-01-25T02:08:37.087Z,15.90
2023-01-25T02:11:11.995Z,17.40
2023-01-25T02:13:46.195Z,17.40
2023-01-25T02:16:26.132Z,14.80
2023-01-25T02:19:02.922Z,16.10
2023-01-25T02:21:45.871Z,16.60
2023-01-25T02:24:28.099Z,14.90
2023-01-25T02:27:01.883Z,15.00
2023-01-25T02:29:36.373Z,13.90
2023-01-25T02:32:10.557Z,15.60
2023-01-25T02:34:44.002Z,16.60
2023-01-25T02:37:18.621Z,14.80
2023-01-25T02:39:52.723Z,14.20
2023-01-25T02:42:26.812Z,11.90
2023-01-25T02:45:00.706Z,14.90
2023-01-25T02:47:34.143Z,12.90
2023-01-25T02:50:10.720Z,15.40
2023-01-25T02:52:44.380Z,11.30
2023-01-25T02:55:18.365Z,11.10
2023-01-25T02:57:52.385Z,10.10
2023-01-25T03:00:26.675Z,9.60
2023-01-25T03:03:00.480Z,9.10
2023-01-25T03:05:34.602Z,9.70
2023-01-25T03:08:08.772Z,8.10
2023-01-25T03:10:42.659Z,8.20
2023-01-25T03:13:16.609Z,8.30
2023-01-25T03:15:50.731Z,9.00
2023-01-25T03:18:24.473Z,12.20
2023-01-25T03:20:58.568Z,10.70
2023-01-25T03:23:32.315Z,9.80
2023-01-25T03:26:12.629Z,10.80
2023-01-25T03:28:54.358Z,8.80
2023-01-25T03:31:28.687Z,10.40
2023-01-25T03:34:03.513Z,10.30
2023-01-25T03:36:41.022Z,8.40
2023-01-25T03:39:15.072Z,9.20
2023-01-25T03:41:50.314Z,8.30
2023-01-25T03:44:24.218Z,9.30
2023-01-25T03:46:57.893Z,9.80
2023-01-25T03:49:40.064Z,11.40
2023-01-25T03:52:14.042Z,11.30
2023-01-25T03:54:48.424Z,9.70
2023-01-25T03:57:22.373Z,9.70
2023-01-25T04:00:03.536Z,10.60
2023-01-25T04:02:49.420Z,12.10
2023-01-25T04:05:24.889Z,12.30
2023-01-25T04:07:59.729Z,13.00
2023-01-25T04:10:42.631Z,11.10
2023-01-25T04:13:16.459Z,10.70
2023-01-25T04:15:50.304Z,13.60
2023-01-25T04:18:35.992Z,11.10
2023-01-25T04:21:10.845Z,11.90
2023-01-25T04:23:44.999Z,13.10
2023-01-25T04:26:19.247Z,13.00
2023-01-25T04:28:58.022Z,13.80
2023-01-25T04:31:32.465Z,13.20
2023-01-25T04:34:06.352Z,13.80
2023-01-25T04:36:40.108Z,14.00
2023-01-25T04:39:14.620Z,16.10
2023-01-25T04:41:48.889Z,16.40
2023-01-25T04:44:22.472Z,18.50
2023-01-25T04:46:56.092Z,17.20
2023-01-25T04:49:30.371Z,20.30
2023-01-25T04:52:04.850Z,20.40
2023-01-25T04:54:38.556Z,22.10
2023-01-25T04:57:13.596Z,22.10
2023-01-25T04:59:49.095Z,23.40
2023-01-25T05:02:22.971Z,24.70
2023-01-25T05:04:56.925Z,23.70
2023-01-25T05:07:30.621Z,24.90
2023-01-25T05:10:04.820Z,25.30
2023-01-25T05:12:39.571Z,26.10
2023-01-25T05:15:14.768Z,26.60
2023-01-25T05:17:48.672Z,24.10
2023-01-25T05:20:22.653Z,25.30
2023-01-25T05:22:56.587Z,23.20
2023-01-25T05:25:48.434Z,26.40
2023-01-25T05:28:22.697Z,23.40
2023-01-25T05:31:16.919Z,24.40
2023-01-25T05:33:51.132Z,26.50
2023-01-25T05:36:24.995Z,27.40
2023-01-25T05:38:59.419Z,25.90
2023-01-25T05:41:34.340Z,26.90
2023-01-25T05:44:08.814Z,28.40
2023-01-25T05:46:44.897Z,28.90
2023-01-25T05:49:19.867Z,28.00
2023-01-25T05:51:53.796Z,28.80
2023-01-25T05:54:28.304Z,29.40
2023-01-25T05:57:07.164Z,28.20
2023-01-25T05:59:41.391Z,26.10
2023-01-25T06:02:16.556Z,27.00
2023-01-25T06:04:51.439Z,30.80
2023-01-25T06:07:25.637Z,28.20
2023-01-25T06:09:59.643Z,29.40
2023-01-25T06:12:33.621Z,32.90
2023-01-25T06:15:08.684Z,32.50
2023-01-25T06:17:42.913Z,34.20
2023-01-25T06:20:43.091Z,33.50
2023-01-25T06:23:17.065Z,32.50
2023-01-25T06:25:50.788Z,33.60
2023-01-25T06:28:24.619Z,36.30
2023-01-25T06:30:58.445Z,32.10
2023-01-25T06:33:32.260Z,32.30
2023-01-25T06:36:09.502Z,30.80
2023-01-25T06:38:44.197Z,32.10
2023-01-25T06:41:17.966Z,34.50
2023-01-25T06:43:54.274Z,35.00
2023-01-25T06:46:28.388Z,29.90
2023-01-25T06:49:02.358Z,31.10
2023-01-25T06:51:36.587Z,32.10
2023-01-25T06:54:10.448Z,30.00
2023-01-25T06:56:44.428Z,28.30
2023-01-25T06:59:18.656Z,26.30
2023-01-25T07:01:52.311Z,30.80
2023-01-25T07:04:27.023Z,29.50
2023-01-25T07:07:00.451Z,31.00
2023-01-25T07:09:34.280Z,29.10
2023-01-25T07:12:09.364Z,30.80
2023-01-25T07:14:42.982Z,30.60
2023-01-25T07:17:17.154Z,28.00
2023-01-25T07:19:50.859Z,29.30
2023-01-25T07:22:24.851Z,29.90
2023-01-25T07:24:59.343Z,31.30
2023-01-25T07:27:37.980Z,33.70
2023-01-25T07:30:14.849Z,33.10
2023-01-25T07:33:01.021Z,30.90
2023-01-25T07:35:34.990Z,33.70
2023-01-25T07:38:08.833Z,35.20
2023-01-25T07:40:45.731Z,31.90
2023-01-25T07:43:19.745Z,30.90
2023-01-25T07:45:53.703Z,29.00
2023-01-25T07:48:30.169Z,32.10
2023-01-25T07:51:16.856Z,32.20
2023-01-25T07:53:51.892Z,36.60
2023-01-25T07:56:27.622Z,32.50
2023-01-25T07:59:03.241Z,35.70
2023-01-25T08:01:38.680Z,35.40
2023-01-25T08:04:12.979Z,34.60
2023-01-25T08:06:46.967Z,32.30
2023-01-25T08:09:21.690Z,36.70
2023-01-25T08:11:55.337Z,34.90
2023-01-25T08:14:30.534Z,32.00
2023-01-25T08:17:04.481Z,34.30
2023-01-25T08:19:38.592Z,34.60
2023-01-25T08:22:13.534Z,34.00
2023-01-25T08:24:47.810Z,45.00
2023-01-25T08:27:21.734Z,36.90
2023-01-25T08:29:55.371Z,33.60
2023-01-25T08:32:29.269Z,35.40
2023-01-25T08:35:03.035Z,34.80
2023-01-25T08:37:37.029Z,33.40
2023-01-25T08:40:14.325Z,37.10
2023-01-25T08:42:48.289Z,37.80
2023-01-25T08:45:22.429Z,36.40
2023-01-25T08:47:55.917Z,36.60
2023-01-25T08:50:29.923Z,34.10
2023-01-25T08:53:03.524Z,36.40
2023-01-25T08:55:39.339Z,37.20
2023-01-25T08:58:14.410Z,35.90
2023-01-25T09:00:48.352Z,38.70
2023-01-25T09:03:22.497Z,33.20
2023-01-25T09:05:57.503Z,35.70
2023-01-25T09:08:31.028Z,36.50
2023-01-25T09:11:07.713Z,35.50
2023-01-25T09:13:44.016Z,37.00
2023-01-25T09:16:21.018Z,35.30
2023-01-25T09:18:55.068Z,33.10
2023-01-25T09:21:28.904Z,36.10
2023-01-25T09:24:07.327Z,34.10
2023-01-25T09:26:55.684Z,34.40
2023-01-25T09:29:33.290Z,36.80
2023-01-25T09:32:08.081Z,35.10
2023-01-25T09:35:00.997Z,37.00
2023-01-25T09:37:34.884Z,39.90
2023-01-25T09:40:15.963Z,39.80
2023-01-25T09:43:02.352Z,39.60
2023-01-25T09:45:37.262Z,36.50
2023-01-25T09:48:28.719Z,36.40
2023-01-25T09:51:17.548Z,36.30
2023-01-25T09:53:57.224Z,36.70
2023-01-25T09:56:36.038Z,36.50
2023-01-25T09:59:19.159Z,38.70
2023-01-25T10:01:57.941Z,37.60
2023-01-25T10:04:38.055Z,40.80
2023-01-25T10:07:23.060Z,39.10
2023-01-25T10:10:07.800Z,42.10
2023-01-25T10:12:42.536Z,40.10
2023-01-25T10:15:22.549Z,37.40
2023-01-25T10:18:04.844Z,39.80
2023-01-25T10:20:50.686Z,40.50
2023-01-25T10:23:55.201Z,41.10
2023-01-25T10:26:31.487Z,41.60
2023-01-25T10:29:13.240Z,40.40
2023-01-25T10:31:52.967Z,44.50
2023-01-25T10:34:41.387Z,44.50
2023-01-25T10:37:24.334Z,45.00
2023-01-25T10:40:03.938Z,38.20
2023-01-25T10:42:46.325Z,43.10
2023-01-25T10:45:21.202Z,41.60
2023-01-25T10:48:03.498Z,40.20
2023-01-25T10:50:55.304Z,41.60
2023-01-25T10:53:32.497Z,44.90
2023-01-25T10:56:19.673Z,40.10
2023-01-25T10:58:55.906Z,42.60
2023-01-25T11:01:32.170Z,43.60
2023-01-25T11:04:23.909Z,42.70
2023-01-25T11:06:57.960Z,42.80
2023-01-25T11:09:44.321Z,45.10
2023-01-25T11:12:23.393Z,43.20
2023-01-25T11:14:57.281Z,42.70
2023-01-25T11:17:32.703Z,42.60
2023-01-25T11:20:23.206Z,43.70
2023-01-25T11:22:59.238Z,47.50
2023-01-25T11:25:35.445Z,43.00
2023-01-25T11:28:26.364Z,42.10
2023-01-25T11:31:00.931Z,44.90
2023-01-25T11:33:34.887Z,42.50
2023-01-25T11:36:16.879Z,53.50
2023-01-25T11:39:05.561Z,49.00
2023-01-25T11:41:49.969Z,45.20
2023-01-25T11:44:54.589Z,44.30
2023-01-25T11:47:42.604Z,45.70
2023-01-25T11:50:25.753Z,45.80
2023-01-25T11:53:17.549Z,44.60
2023-01-25T11:55:58.014Z,46.50
2023-01-25T11:58:51.339Z,42.10
2023-01-25T12:01:35.795Z,42.00
2023-01-25T12:04:37.735Z,45.70
2023-01-25T12:07:21.914Z,44.40
2023-01-25T12:10:17.124Z,47.00
2023-01-25T12:12:59.047Z,43.70
2023-01-25T12:15:46.889Z,45.70
2023-01-25T12:18:44.324Z,44.60
2023-01-25T12:21:32.420Z,42.80
2023-01-25T12:24:26.543Z,47.00
2023-01-25T12:27:10.064Z,43.60
2023-01-25T12:29:49.841Z,45.30
2023-01-25T12:32:28.882Z,48.60
2023-01-25T12:35:24.476Z,45.80
2023-01-25T12:38:03.193Z,44.70
2023-01-25T12:40:53.516Z,45.40
2023-01-25T12:43:32.323Z,48.90
2023-01-25T12:46:12.867Z,44.70
2023-01-25T12:48:52.852Z,46.10
2023-01-25T12:51:32.113Z,49.20
2023-01-25T12:54:15.956Z,46.60
2023-01-25T12:56:58.697Z,40.20
2023-01-25T12:59:42.024Z,46.70
2023-01-25T13:02:35.958Z,49.20
2023-01-25T13:05:24.496Z,44.40
2023-01-25T13:08:11.388Z,44.30
2023-01-25T13:10:51.022Z,43.10
2023-01-25T13:13:30.128Z,45.40
2023-01-25T13:16:35.709Z,44.10
2023-01-25T13:19:23.377Z,41.40
2023-01-25T13:21:58.816Z,44.80
2023-01-25T13:24:34.341Z,39.30
2023-01-25T13:27:28.518Z,38.30
2023-01-25T13:30:04.959Z,45.40
2023-01-25T13:33:08.589Z,48.00
2023-01-25T13:35:44.783Z,39.60
2023-01-25T13:38:34.142Z,46.40
2023-01-25T13:41:17.387Z,42.30
2023-01-25T13:44:23.011Z,42.10
2023-01-25T13:46:57.283Z,41.00
2023-01-25T13:49:38.763Z,37.00
2023-01-25T13:52:18.819Z,36.90
2023-01-25T13:54:56.102Z,38.60
2023-01-25T13:57:31.733Z,39.90
2023-01-25T14:00:13.280Z,38.10
2023-01-25T14:02:54.713Z,39.70
2023-01-25T14:05:29.571Z,40.80
2023-01-25T14:08:03.732Z,41.80
2023-01-25T14:10:37.742Z,40.30
2023-01-25T14:13:18.874Z,38.90
2023-01-25T14:16:00.848Z,45.10
2023-01-25T14:18:38.909Z,36.20
2023-01-25T14:21:20.570Z,32.70
2023-01-25T14:23:54.715Z,32.10
2023-01-25T14:26:29.950Z,33.30
2023-01-25T14:29:03.739Z,34.00
2023-01-25T14:31:39.062Z,34.80
2023-01-25T14:34:21.485Z,33.10
2023-01-25T14:37:08.945Z,40.80
2023-01-25T14:39:43.042Z,40.70
2023-01-25T14:42:17.459Z,35.70
2023-01-25T14:44:51.825Z,39.30
2023-01-25T14:47:33.465Z,37.30
2023-01-25T14:50:37.529Z,35.50
2023-01-25T14:53:22.655Z,40.70
2023-01-25T14:55:56.835Z,40.60
2023-01-25T14:58:32.371Z,41.60
2023-01-25T15:01:06.989Z,40.60
2023-01-25T15:03:46.409Z,41.70
2023-01-25T15:06:20.827Z,42.00
2023-01-25T15:08:54.846Z,37.60
2023-01-25T15:11:45.952Z,36.60
2023-01-25T15:14:23.663Z,38.40
2023-01-25T15:16:57.589Z,38.50
2023-01-25T15:19:34.825Z,35.20
2023-01-25T15:22:11.951Z,38.80
2023-01-25T15:24:50.350Z,40.90
2023-01-25T15:27:36.627Z,39.50
2023-01-25T15:30:17.042Z,37.60
2023-01-25T15:32:52.807Z,40.40
2023-01-25T15:35:27.113Z,40.70
2023-01-25T15:38:01.194Z,42.30
2023-01-25T15:40:35.470Z,37.20
2023-01-25T15:43:11.990Z,40.00
2023-01-25T15:45:49.449Z,41.80
2023-01-25T15:48:30.930Z,41.60
2023-01-25T15:51:06.097Z,49.10
2023-01-25T15:53:40.623Z,43.60
2023-01-25T15:56:20.765Z,44.30
2023-01-25T15:58:56.712Z,45.60
2023-01-25T16:01:32.186Z,44.80
2023-01-25T16:04:07.125Z,46.60
2023-01-25T16:06:45.871Z,43.10
2023-01-25T16:09:22.580Z,59.40
2023-01-25T16:11:59.258Z,47.30
2023-01-25T16:14:34.442Z,43.20
2023-01-25T16:17:17.311Z,44.40
2023-01-25T16:19:51.684Z,42.10
2023-01-25T16:22:26.231Z,43.60
2023-01-25T16:25:01.577Z,46.40
2023-01-25T16:27:36.538Z,48.70
2023-01-25T16:30:22.882Z,47.00
2023-01-25T16:32:58.757Z,48.70
2023-01-25T16:35:34.018Z,45.10
2023-01-25T16:38:08.581Z,47.50
2023-01-25T16:40:48.838Z,49.20
2023-01-25T16:43:28.987Z,46.80
2023-01-25T16:46:08.399Z,48.90
2023-01-25T16:48:46.606Z,45.50
2023-01-25T16:51:30.542Z,49.80
2023-01-25T16:54:06.264Z,48.40
2023-01-25T16:56:46.226Z,57.90
2023-01-25T16:59:24.263Z,60.50
2023-01-25T17:02:02.115Z,54.70
2023-01-25T17:04:37.352Z,50.20
2023-01-25T17:07:18.299Z,48.30
2023-01-25T17:09:53.696Z,44.70
2023-01-25T17:12:29.912Z,48.00
2023-01-25T17:15:06.111Z,47.30
2023-01-25T17:17:41.467Z,48.30
2023-01-25T17:20:23.086Z,44.90
2023-01-25T17:23:00.275Z,48.60
2023-01-25T17:25:40.521Z,44.00
2023-01-25T17:28:19.259Z,50.00
2023-01-25T17:30:56.342Z,47.60
2023-01-25T17:33:35.676Z,47.30
2023-01-25T17:36:15.171Z,47.50
2023-01-25T17:38:55.617Z,43.40
2023-01-25T17:41:35.607Z,47.20
2023-01-25T17:44:13.247Z,49.40
2023-01-25T17:46:57.478Z,48.50
2023-01-25T17:49:40.185Z,45.10
2023-01-25T17:52:18.753Z,50.00
2023-01-25T17:55:00.822Z,49.60
2023-01-25T18:00:28.975Z,47.60
2023-01-25T18:03:07.519Z,50.40
2023-01-25T18:05:47.174Z,51.70
2023-01-25T18:08:30.046Z,60.00
2023-01-25T18:11:10.038Z,50.30
2023-01-25T18:13:49.820Z,49.90
2023-01-25T18:16:31.539Z,69.30
2023-01-25T18:19:13.152Z,50.20
2023-01-25T18:21:53.867Z,50.90
2023-01-25T18:24:37.933Z,55.70
2023-01-25T18:27:29.528Z,45.90
2023-01-25T18:30:31.384Z,51.40
2023-01-25T18:33:09.905Z,51.90
2023-01-25T18:35:56.837Z,49.80
2023-01-25T18:38:37.675Z,49.60
2023-01-25T18:41:19.876Z,47.60
2023-01-25T18:44:04.931Z,50.30
2023-01-25T18:46:46.805Z,47.20
2023-01-25T18:49:30.020Z,47.70
2023-01-25T18:52:19.258Z,45.00
2023-01-25T18:54:57.234Z,46.30
2023-01-25T18:57:40.973Z,48.80
2023-01-25T19:00:26.253Z,46.80
2023-01-25T19:03:08.415Z,42.40
2023-01-25T19:05:54.722Z,47.10
2023-01-25T19:08:37.052Z,48.80
2023-01-25T19:11:18.799Z,47.70
2023-01-25T19:13:59.599Z,52.70
2023-01-25T19:16:41.580Z,58.70
2023-01-25T19:19:19.823Z,54.70
2023-01-25T19:22:00.876Z,45.70
2023-01-25T19:24:40.561Z,41.90
2023-01-25T19:27:19.132Z,43.10
2023-01-25T19:29:56.582Z,40.30
2023-01-25T19:32:34.383Z,43.70
2023-01-25T19:35:14.164Z,41.70
2023-01-25T19:38:03.692Z,43.90
2023-01-25T19:40:56.691Z,48.10
2023-01-25T19:43:36.181Z,45.20
2023-01-25T19:46:19.178Z,47.40
2023-01-25T19:48:59.460Z,45.60
2023-01-25T19:51:39.335Z,48.20
2023-01-25T19:54:20.833Z,43.20
2023-01-25T19:56:59.676Z,42.50
2023-01-25T19:59:41.090Z,47.70
2023-01-25T20:02:22.473Z,43.20
2023-01-25T20:05:01.371Z,46.60
2023-01-25T20:07:39.733Z,45.30
2023-01-25T20:10:31.024Z,52.00
2023-01-25T20:13:11.518Z,48.70
2023-01-25T20:16:01.144Z,47.80
2023-01-25T20:18:42.615Z,44.40
2023-01-25T20:21:22.876Z,46.80
2023-01-25T20:24:07.466Z,44.80
2023-01-25T20:26:47.887Z,48.80
2023-01-25T20:29:32.235Z,45.60
2023-01-25T20:32:26.688Z,43.30
2023-01-25T20:35:10.725Z,44.00
2023-01-25T20:37:52.941Z,46.40
2023-01-25T20:40:39.208Z,47.60
2023-01-25T20:43:18.973Z,44.60
2023-01-25T20:46:00.307Z,43.80
2023-01-25T20:51:19.036Z,43.50
2023-01-25T20:53:58.311Z,46.40
2023-01-25T20:56:36.081Z,52.30
2023-01-25T20:59:13.957Z,50.30
2023-01-25T21:01:54.784Z,51.70
2023-01-25T21:04:34.407Z,49.50
2023-01-25T21:07:12.958Z,49.30
2023-01-25T21:09:49.445Z,53.50
2023-01-25T21:12:26.963Z,48.90
2023-01-25T21:15:03.933Z,51.10
2023-01-25T21:17:41.056Z,52.30
2023-01-25T21:20:23.429Z,52.50
2023-01-25T21:22:59.276Z,57.20
2023-01-25T21:25:39.506Z,52.30
2023-01-25T21:30:54.162Z,53.70
2023-01-25T21:33:29.189Z,54.20
2023-01-25T21:36:14.949Z,61.30
2023-01-25T21:38:57.667Z,61.00
2023-01-25T21:41:35.177Z,59.30
2023-01-25T21:44:29.668Z,58.50
2023-01-25T21:47:29.900Z,58.00
2023-01-25T21:50:17.230Z,58.20
2023-01-25T21:52:54.527Z,64.40
2023-01-25T21:55:29.443Z,64.30
2023-01-25T21:58:03.888Z,61.50
2023-01-25T22:00:39.474Z,61.40
2023-01-25T22:03:13.358Z,63.10
2023-01-25T22:05:47.102Z,65.20
2023-01-25T22:08:20.922Z,60.70
2023-01-25T22:10:55.036Z,60.10
2023-01-25T22:13:30.068Z,48.60
2023-01-25T22:16:04.667Z,55.30
2023-01-25T22:18:41.611Z,50.50
2023-01-25T22:21:20.007Z,52.20
2023-01-25T22:23:55.045Z,51.50
2023-01-25T22:26:32.483Z,48.20
2023-01-25T22:29:06.559Z,44.10
2023-01-25T22:31:41.440Z,50.70
2023-01-25T22:34:15.443Z,48.70
2023-01-25T22:36:50.249Z,49.60
2023-01-25T22:39:24.099Z,50.50
2023-01-25T22:41:58.281Z,50.70
2023-01-25T22:44:32.231Z,48.60
2023-01-25T22:47:06.313Z,47.70
2023-01-25T22:49:40.346Z,47.70
2023-01-25T22:52:14.454Z,50.00
2023-01-25T22:54:50.509Z,48.10
2023-01-25T22:57:24.387Z,46.60
2023-01-25T22:59:58.529Z,52.50
2023-01-25T23:02:32.899Z,48.70
2023-01-25T23:05:07.677Z,45.90
2023-01-25T23:07:41.187Z,45.20
2023-01-25T23:10:16.834Z,44.80
2023-01-25T23:12:50.505Z,44.50
2023-01-25T23:15:24.651Z,49.90
2023-01-25T23:18:15.714Z,49.50
2023-01-25T23:20:49.447Z,43.00
2023-01-25T23:23:24.608Z,46.50
2023-01-25T23:25:58.576Z,49.40
2023-01-25T23:28:32.770Z,49.90
2023-01-25T23:31:18.291Z,44.90
2023-01-25T23:33:55.040Z,52.20
2023-01-25T23:36:30.662Z,50.30
2023-01-25T23:39:04.221Z,48.10
2023-01-25T23:41:38.651Z,49.10
2023-01-25T23:44:12.402Z,50.30
2023-01-25T23:46:46.788Z,45.30
2023-01-25T23:49:20.714Z,47.30
2023-01-25T23:51:54.950Z,45.20
2023-01-25T23:54:32.796Z,47.40
2023-01-25T23:57:06.947Z,50.40
2023-01-25T23:59:41.078Z,50.10
